Time;durP1;ratioP1;P1;durP2;ratioP2;P2;SDS_P1;SDS_P2;PMS_P1;PMS_P2;Temp;Humidity;BMP_temperature;BMP_pressure;BME280_temperature;BME280_humidity;BME280_pressure;Samples;Min_cycle;Max_cycle;Signal;HPM_P1;HPM_P2
2023/03/15 00:01:48;;;;;;;4.47;4.17;;;3.40;99.90;;;3.98;100.00;97429.78;5240917;28;20201;-63
2023/03/15 00:04:21;;;;;;;4.73;4.53;;;3.30;99.90;;;4.00;100.00;97439.22;5240904;28;20307;-64
2023/03/15 00:06:54;;;;;;;4.20;4.00;;;3.30;99.90;;;3.89;100.00;97446.75;5240219;28;20199;-63
2023/03/15 00:09:28;;;;;;;4.80;4.60;;;3.20;99.90;;;3.85;100.00;97450.72;5240405;28;20207;-64
2023/03/15 00:12:01;;;;;;;4.90;4.60;;;3.20;99.90;;;3.91;100.00;97446.13;5243327;28;20235;-63
2023/03/15 00:14:36;;;;;;;4.73;4.43;;;3.20;99.90;;;4.01;100.00;97448.59;5227928;28;20221;-63
2023/03/15 00:17:10;;;;;;;4.63;4.33;;;3.30;99.90;;;3.84;100.00;97474.25;5239489;28;20219;-63
2023/03/15 00:19:43;;;;;;;4.43;4.13;;;3.20;99.90;;;4.01;100.00;97480.59;5235167;28;20301;-64
2023/03/15 00:22:16;;;;;;;4.10;3.90;;;3.20;99.90;;;3.87;100.00;97483.69;5250881;28;20234;-64
2023/03/15 00:24:49;;;;;;;4.77;4.47;;;3.20;99.90;;;3.84;100.00;97486.88;5241589;28;20318;-64
2023/03/15 00:27:22;;;;;;;4.30;4.10;;;3.20;99.90;;;3.79;100.00;97491.56;5243126;28;20220;-63
2023/03/15 00:29:57;;;;;;;4.23;3.93;;;3.20;99.90;;;3.76;100.00;97500.56;5241778;28;20208;-64
2023/03/15 00:32:30;;;;;;;3.80;3.60;;;3.10;99.90;;;3.80;100.00;97507.59;5241005;28;20321;-64
2023/03/15 00:35:04;;;;;;;3.90;3.67;;;3.10;99.90;;;3.67;100.00;97523.47;5241917;28;20212;-64
2023/03/15 00:37:37;;;;;;;3.50;3.30;;;3.10;99.90;;;3.61;100.00;97518.84;5237345;28;20323;-64
2023/03/15 00:40:12;;;;;;;3.60;3.40;;;3.00;99.90;;;3.71;100.00;97527.13;5241299;28;21438;-64
2023/03/15 00:42:48;;;;;;;3.60;3.40;;;3.00;99.90;;;3.71;100.00;97534.69;5243197;28;20286;-64
2023/03/15 00:45:23;;;;;;;3.47;3.27;;;3.10;99.90;;;3.73;100.00;97543.28;5237245;28;20260;-64
2023/03/15 00:47:56;;;;;;;3.67;3.40;;;3.10;99.90;;;3.67;100.00;97550.41;5248520;28;20286;-65
2023/03/15 00:50:29;;;;;;;3.73;3.53;;;3.10;99.90;;;3.75;100.00;97554.38;5236679;28;20196;-65
2023/03/15 00:53:02;;;;;;;4.60;4.30;;;3.10;99.90;;;3.74;100.00;97562.75;5238747;28;20255;-65
2023/03/15 00:55:35;;;;;;;4.00;3.80;;;3.10;99.90;;;3.72;100.00;97565.16;5240133;28;20292;-64
2023/03/15 00:58:09;;;;;;;3.50;3.30;;;3.10;99.90;;;3.65;100.00;97567.06;5240532;28;20231;-65
2023/03/15 01:00:43;;;;;;;3.77;3.57;;;3.00;99.90;;;3.73;100.00;97566.03;5239511;28;20734;-65
2023/03/15 01:03:16;;;;;;;4.07;3.77;;;2.90;99.90;;;3.72;100.00;97572.75;5238921;28;20227;-64
2023/03/15 01:05:49;;;;;;;3.93;3.73;;;2.90;99.90;;;3.77;100.00;97584.06;5244212;28;20201;-64
2023/03/15 01:08:23;;;;;;;3.97;3.67;;;2.90;99.90;;;3.72;100.00;97589.53;5240296;28;20205;-65
2023/03/15 01:10:56;;;;;;;3.70;3.50;;;2.90;99.90;;;3.62;100.00;97595.50;5239707;28;21344;-64
2023/03/15 01:13:29;;;;;;;4.50;4.10;;;2.90;99.90;;;3.60;100.00;97595.38;5246800;28;20220;-64
2023/03/15 01:16:04;;;;;;;4.83;4.50;;;2.90;99.90;;;3.65;100.00;97607.50;5236200;28;20246;-65
2023/03/15 01:18:38;;;;;;;4.53;4.23;;;2.90;99.90;;;3.64;100.00;97610.81;5240552;28;22014;-64
2023/03/15 01:21:14;;;;;;;4.90;4.60;;;2.90;99.90;;;3.67;100.00;97614.44;5241400;28;20232;-63
2023/03/15 01:23:47;;;;;;;5.40;4.90;;;3.00;99.90;;;3.68;100.00;97618.72;5234754;28;20244;-65
2023/03/15 01:26:20;;;;;;;5.57;5.23;;;2.90;99.90;;;3.66;100.00;97624.44;5242341;28;20295;-65
2023/03/15 01:28:55;;;;;;;5.47;5.17;;;2.90;99.90;;;3.79;100.00;97625.53;5241826;28;20287;-64
2023/03/15 01:31:30;;;;;;;5.70;5.20;;;2.90;99.90;;;3.70;100.00;97622.28;5237045;28;20208;-64
2023/03/15 01:34:04;;;;;;;6.57;5.87;;;2.90;99.90;;;3.67;100.00;97631.28;5247308;28;20238;-63
2023/03/15 01:36:37;;;;;;;6.00;5.60;;;2.90;99.90;;;3.68;100.00;97638.06;5240988;28;20208;-65
2023/03/15 01:39:10;;;;;;;6.00;5.53;;;2.90;99.90;;;3.64;100.00;97641.13;5247764;28;20204;-65
2023/03/15 01:41:43;;;;;;;6.20;5.70;;;2.90;99.90;;;3.63;100.00;97637.69;5232480;28;20208;-64
2023/03/15 01:44:18;;;;;;;5.53;5.10;;;2.80;99.90;;;3.57;100.00;97635.56;5235483;28;20223;-63
2023/03/15 01:46:52;;;;;;;6.23;5.73;;;2.80;99.90;;;3.42;100.00;97646.97;5234479;28;20292;-63
2023/03/15 01:49:30;;;;;;;6.27;5.87;;;2.80;99.90;;;3.43;100.00;97646.19;5240035;28;20211;-64
2023/03/15 01:52:08;;;;;;;6.03;5.53;;;2.70;99.90;;;3.50;100.00;97650.13;5241769;28;20200;-64
2023/03/15 01:54:43;;;;;;;6.80;6.30;;;2.70;99.90;;;3.43;100.00;97651.25;5237063;28;20224;-64
2023/03/15 01:57:22;;;;;;;6.97;6.43;;;2.70;99.90;;;3.33;100.00;97651.28;5235670;28;20214;-64
2023/03/15 02:00:06;;;;;;;7.13;6.53;;;2.70;99.90;;;3.36;100.00;97649.88;5236939;28;20305;-63
2023/03/15 02:02:45;;;;;;;7.77;7.07;;;2.60;99.90;;;3.36;100.00;97662.50;5241314;28;20200;-64
2023/03/15 02:05:22;;;;;;;7.13;6.53;;;2.60;99.90;;;3.41;100.00;97665.44;5233026;28;20558;-64
2023/03/15 02:07:56;;;;;;;7.97;7.17;;;2.60;99.90;;;3.31;100.00;97660.38;5239606;28;20191;-64
2023/03/15 02:10:35;;;;;;;7.77;7.17;;;2.60;99.90;;;3.33;100.00;97679.06;5230835;28;20593;-63
2023/03/15 02:13:09;;;;;;;7.67;7.07;;;2.60;99.90;;;3.30;100.00;97686.41;5240028;28;20723;-63
2023/03/15 02:15:45;;;;;;;8.43;7.63;;;2.60;99.90;;;3.37;100.00;97684.47;5243112;28;20192;-64
2023/03/15 02:18:21;;;;;;;9.43;8.67;;;2.60;99.90;;;3.51;100.00;97685.59;5237291;28;20326;-64
2023/03/15 02:21:05;;;;;;;9.73;8.93;;;2.70;99.90;;;3.60;100.00;97685.47;5236744;28;20322;-65
2023/03/15 02:23:38;;;;;;;9.90;8.93;;;2.70;99.90;;;3.69;100.00;97685.31;5234596;28;20223;-64
2023/03/15 02:26:22;;;;;;;10.70;9.60;;;2.80;99.90;;;3.51;100.00;97698.25;5237648;28;20197;-64
2023/03/15 02:28:57;;;;;;;11.37;10.27;;;2.70;99.90;;;3.45;100.00;97692.69;5236184;28;20191;-63
2023/03/15 02:31:36;;;;;;;11.03;10.03;;;2.80;99.90;;;3.42;100.00;97700.03;5233530;28;20582;-64
2023/03/15 02:34:10;;;;;;;10.40;9.30;;;2.70;99.90;;;3.52;100.00;97702.56;5231108;28;20235;-64
2023/03/15 02:36:43;;;;;;;10.27;9.37;;;2.70;99.90;;;3.55;100.00;97701.91;5239345;28;20201;-64
2023/03/15 02:39:19;;;;;;;10.30;9.27;;;2.80;99.90;;;3.49;100.00;97712.41;5240205;28;20219;-64
2023/03/15 02:41:55;;;;;;;10.73;9.80;;;2.70;99.90;;;3.46;100.00;97719.72;5233702;28;20199;-64
2023/03/15 02:44:34;;;;;;;11.47;10.30;;;2.80;99.90;;;3.52;100.00;97709.22;5239898;28;20231;-64
2023/03/15 02:47:12;;;;;;;11.73;10.53;;;2.80;99.90;;;3.54;100.00;97716.16;5238357;28;20205;-65
2023/03/15 02:49:52;;;;;;;10.70;9.60;;;2.80;99.90;;;3.42;100.00;97720.22;5237513;28;20293;-64
2023/03/15 02:52:25;;;;;;;11.10;9.83;;;2.80;99.90;;;3.55;100.00;97720.50;5239335;28;20201;-64
2023/03/15 02:54:58;;;;;;;13.40;10.73;;;2.70;99.90;;;3.46;100.00;97719.72;5239929;28;20730;-63
2023/03/15 02:57:31;;;;;;;12.70;10.73;;;2.80;99.90;;;3.52;100.00;97730.34;5233736;28;20227;-64
2023/03/15 03:00:13;;;;;;;14.47;11.20;;;2.80;99.90;;;3.45;100.00;97725.53;5236412;28;20207;-65
2023/03/15 03:02:48;;;;;;;11.47;10.37;;;2.80;99.90;;;3.39;100.00;97730.09;5230550;28;20228;-64
2023/03/15 03:05:21;;;;;;;12.63;10.03;;;2.80;99.90;;;3.39;100.00;97737.66;5233918;28;20246;-64
2023/03/15 03:07:55;;;;;;;12.27;10.23;;;2.80;99.90;;;3.47;100.00;97744.25;5240508;28;20206;-64
2023/03/15 03:10:28;;;;;;;13.90;10.57;;;2.80;99.90;;;3.41;100.00;97743.75;5239532;28;20615;-64
2023/03/15 03:13:01;;;;;;;12.43;11.13;;;2.70;99.90;;;3.43;100.00;97751.44;5242469;28;20231;-64
2023/03/15 03:15:36;;;;;;;11.73;10.37;;;2.70;99.90;;;3.44;100.00;97761.66;5240306;28;20207;-65
2023/03/15 03:18:09;;;;;;;11.37;9.90;;;2.80;99.90;;;3.52;100.00;97769.84;5238854;28;20237;-63
2023/03/15 03:20:44;;;;;;;12.83;10.40;;;2.90;99.90;;;3.72;100.00;97769.88;5238716;28;20215;-65
2023/03/15 03:23:18;;;;;;;12.40;10.67;;;2.90;99.90;;;3.73;100.00;97778.34;5242397;28;20219;-64
2023/03/15 03:25:52;;;;;;;13.40;10.40;;;2.90;99.90;;;3.80;100.00;97786.53;5239882;28;20201;-65
2023/03/15 03:28:29;;;;;;;10.27;9.27;;;2.90;99.90;;;3.72;100.00;97792.63;5235386;28;20675;-64
2023/03/15 03:31:03;;;;;;;11.97;9.73;;;2.80;99.90;;;3.77;100.00;97800.56;5239155;28;20566;-63
2023/03/15 03:33:36;;;;;;;11.97;10.07;;;2.90;99.90;;;3.62;100.00;97802.72;5244582;28;20239;-64
2023/03/15 03:36:11;;;;;;;12.23;9.80;;;2.90;99.90;;;3.71;100.00;97802.59;5245537;28;20218;-63
2023/03/15 03:38:46;;;;;;;10.20;9.20;;;2.90;99.90;;;3.72;100.00;97811.94;5236178;28;20312;-63
2023/03/15 03:41:20;;;;;;;12.33;9.53;;;2.90;99.90;;;3.66;100.00;97808.91;5233765;28;20202;-64
2023/03/15 03:43:53;;;;;;;12.50;9.20;;;2.90;99.90;;;3.67;100.00;97815.75;5235882;28;20228;-64
2023/03/15 03:46:28;;;;;;;10.43;9.33;;;2.90;99.90;;;3.63;100.00;97824.69;5240735;28;20574;-64
2023/03/15 03:49:01;;;;;;;13.57;9.60;;;2.90;99.90;;;3.65;100.00;97827.38;5236861;28;20207;-64
2023/03/15 03:51:35;;;;;;;11.90;8.83;;;2.90;99.90;;;3.68;100.00;97823.44;5240210;28;20229;-64
2023/03/15 03:54:08;;;;;;;10.53;7.83;;;2.90;99.90;;;3.71;100.00;97832.94;5232684;28;20221;-63
2023/03/15 03:56:41;;;;;;;10.03;8.03;;;2.90;99.90;;;3.61;100.00;97839.75;5243560;28;20203;-63
2023/03/15 03:59:14;;;;;;;9.40;8.33;;;2.90;99.90;;;3.63;100.00;97841.50;5240390;28;20220;-64
2023/03/15 04:01:50;;;;;;;11.87;8.63;;;2.90;99.90;;;3.50;100.00;97853.13;5242403;28;20283;-63
2023/03/15 04:04:25;;;;;;;10.27;9.03;;;2.80;99.90;;;3.50;100.00;97859.81;5239919;28;20247;-64
2023/03/15 04:06:58;;;;;;;12.10;8.67;;;2.90;99.90;;;3.57;100.00;97852.88;5243210;28;20222;-63
2023/03/15 04:09:36;;;;;;;10.90;8.10;;;2.80;99.90;;;3.56;100.00;97863.75;5237356;28;20626;-64
2023/03/15 04:12:09;;;;;;;9.97;8.07;;;2.80;99.90;;;3.52;100.00;97864.25;5235121;28;20284;-64
2023/03/15 04:14:43;;;;;;;10.17;7.70;;;2.80;99.90;;;3.62;100.00;97870.94;5244373;28;20217;-65
2023/03/15 04:17:17;;;;;;;9.63;8.00;;;2.80;99.90;;;3.59;100.00;97873.22;5240503;28;20568;-63
2023/03/15 04:19:50;;;;;;;10.83;8.63;;;2.80;99.90;;;3.52;100.00;97879.41;5240992;28;20226;-64
2023/03/15 04:22:24;;;;;;;10.27;8.87;;;2.90;99.90;;;3.52;100.00;97881.94;5235139;28;20197;-64
2023/03/15 04:24:57;;;;;;;11.97;8.57;;;2.90;99.90;;;3.52;100.00;97886.09;5236355;28;20605;-65
2023/03/15 04:27:30;;;;;;;10.87;8.10;;;2.80;99.90;;;3.53;100.00;97887.88;5244319;28;20209;-65
2023/03/15 04:30:04;;;;;;;9.27;7.80;;;2.80;99.90;;;3.55;100.00;97889.78;5241707;28;20255;-63
2023/03/15 04:32:41;;;;;;;8.90;7.93;;;2.80;99.90;;;3.55;100.00;97893.94;5239777;28;20197;-63
2023/03/15 04:35:14;;;;;;;9.70;8.70;;;2.80;99.90;;;3.56;100.00;97891.53;5238603;28;20287;-63
2023/03/15 04:37:47;;;;;;;11.77;7.77;;;2.80;99.90;;;3.54;100.00;97890.50;5229279;28;20202;-63
2023/03/15 04:40:22;;;;;;;11.20;8.23;;;2.90;99.90;;;3.52;100.00;97899.63;5245630;28;20980;-64
2023/03/15 04:42:56;;;;;;;9.53;7.47;;;2.80;99.90;;;3.55;100.00;97904.06;5240313;28;20220;-63
2023/03/15 04:45:30;;;;;;;11.40;8.00;;;2.80;99.90;;;3.50;100.00;97901.13;5236696;28;20773;-62
2023/03/15 04:48:05;;;;;;;9.20;7.23;;;2.70;99.90;;;3.45;100.00;97907.44;5234885;28;20588;-63
2023/03/15 04:50:38;;;;;;;11.50;7.53;;;2.70;99.90;;;3.38;100.00;97910.22;5243712;28;20651;-62
2023/03/15 04:53:11;;;;;;;7.90;7.03;;;2.70;99.90;;;3.36;100.00;97911.72;5235346;28;20330;-63
2023/03/15 04:55:44;;;;;;;12.23;7.87;;;2.60;99.90;;;3.32;100.00;97910.56;5239985;28;20284;-62
2023/03/15 04:58:19;;;;;;;11.13;7.37;;;2.60;99.90;;;3.23;100.00;97912.28;5242977;28;20209;-64
2023/03/15 05:00:53;;;;;;;9.57;6.60;;;2.50;99.90;;;3.18;100.00;97911.03;5238876;28;20212;-63
2023/03/15 05:03:28;;;;;;;9.20;6.87;;;2.40;99.90;;;3.09;100.00;97916.16;5240055;28;20731;-63
2023/03/15 05:06:06;;;;;;;9.20;7.10;;;2.40;99.90;;;3.06;100.00;97918.44;5238157;28;20295;-62
2023/03/15 05:08:40;;;;;;;7.43;6.67;;;2.30;99.90;;;3.03;100.00;97914.72;5246155;28;20200;-63
2023/03/15 05:11:13;;;;;;;12.03;7.03;;;2.30;99.90;;;2.96;100.00;97913.31;5234741;28;20215;-63
2023/03/15 05:13:46;;;;;;;10.10;7.23;;;2.30;99.90;;;2.89;100.00;97926.16;5239114;28;20593;-64
2023/03/15 05:16:20;;;;;;;8.90;7.10;;;2.20;99.90;;;2.81;100.00;97919.56;5229376;28;20695;-64
2023/03/15 05:18:55;;;;;;;7.90;6.97;;;2.10;99.90;;;2.74;100.00;97917.25;5234133;28;20212;-63
2023/03/15 05:21:28;;;;;;;9.20;7.80;;;2.00;99.90;;;2.66;100.00;97922.53;5235865;28;20868;-64
2023/03/15 05:24:02;;;;;;;8.80;7.17;;;2.00;99.90;;;2.63;100.00;97922.25;5238714;28;20286;-64
2023/03/15 05:26:35;;;;;;;10.07;7.17;;;2.00;99.90;;;2.57;100.00;97921.69;5249425;28;20201;-64
2023/03/15 05:29:08;;;;;;;7.87;6.67;;;1.90;99.90;;;2.53;100.00;97923.81;5239680;28;20206;-64
2023/03/15 05:31:41;;;;;;;10.97;7.00;;;1.80;99.90;;;2.48;100.00;97930.97;5235391;28;20211;-64
2023/03/15 05:34:16;;;;;;;9.90;6.70;;;1.70;99.90;;;2.47;100.00;97930.09;5242687;28;20266;-64
2023/03/15 05:36:50;;;;;;;9.27;7.17;;;1.70;99.90;;;2.42;100.00;97925.38;5242447;28;20200;-64
2023/03/15 05:39:23;;;;;;;9.80;6.90;;;1.70;99.90;;;2.38;100.00;97929.28;5239358;28;20317;-64
2023/03/15 05:41:56;;;;;;;7.70;6.90;;;1.60;99.90;;;2.37;100.00;97926.59;5238833;28;20254;-64
2023/03/15 05:44:29;;;;;;;9.90;7.33;;;1.70;99.90;;;2.41;100.00;97933.72;5238634;28;20223;-64
2023/03/15 05:47:02;;;;;;;8.87;8.07;;;1.60;99.90;;;2.37;100.00;97931.66;5243839;28;20667;-63
2023/03/15 05:49:36;;;;;;;10.63;7.87;;;1.60;99.90;;;2.30;100.00;97936.91;5230001;28;20501;-63
2023/03/15 05:52:10;;;;;;;8.53;6.90;;;1.50;99.90;;;2.24;100.00;97930.56;5231566;28;20672;-64
2023/03/15 05:54:43;;;;;;;9.67;7.77;;;1.50;99.90;;;2.20;100.00;97933.56;5239749;28;20302;-63
2023/03/15 05:57:16;;;;;;;9.97;8.03;;;1.40;99.90;;;2.13;100.00;97927.81;5239037;28;20203;-65
2023/03/15 05:59:49;;;;;;;10.07;8.90;;;1.40;99.90;;;2.12;100.00;97931.97;5233369;28;20231;-64
2023/03/15 06:02:22;;;;;;;8.83;7.63;;;1.40;99.90;;;2.15;100.00;97942.34;5232264;28;20193;-63
2023/03/15 06:04:56;;;;;;;11.17;8.47;;;1.40;99.90;;;2.13;100.00;97943.81;5234613;28;20220;-65
2023/03/15 06:07:30;;;;;;;12.17;8.27;;;1.40;99.90;;;2.13;100.00;97951.38;5238602;28;20199;-64
2023/03/15 06:10:03;;;;;;;11.00;8.57;;;1.40;99.90;;;2.17;100.00;97947.50;5239342;28;20679;-63
2023/03/15 06:12:36;;;;;;;11.50;8.60;;;1.40;99.90;;;2.18;100.00;97954.34;5241769;28;20690;-64
2023/03/15 06:15:11;;;;;;;9.77;8.03;;;1.40;99.90;;;2.12;100.00;97957.19;5237082;28;20214;-64
2023/03/15 06:17:44;;;;;;;14.80;9.53;;;1.40;99.90;;;2.25;100.00;97947.44;5232188;28;20197;-64
2023/03/15 06:20:19;;;;;;;15.83;10.17;;;1.40;99.90;;;2.39;100.00;97956.25;5240653;28;20683;-63
2023/03/15 06:22:52;;;;;;;15.93;9.60;;;1.50;99.90;;;2.57;100.00;97957.00;5238411;28;20219;-63
2023/03/15 06:25:25;;;;;;;16.47;10.53;;;1.70;99.90;;;2.68;100.00;97956.31;5233917;28;20219;-65
2023/03/15 06:27:58;;;;;;;15.77;10.07;;;1.80;99.90;;;2.84;100.00;97957.69;5234761;28;20225;-64
2023/03/15 06:30:31;;;;;;;16.10;10.00;;;1.90;99.90;;;3.05;100.00;97957.03;5239736;28;20207;-64
2023/03/15 06:33:04;;;;;;;16.17;10.60;;;2.10;99.90;;;3.29;100.00;97954.84;5239353;28;20235;-64
2023/03/15 06:35:39;;;;;;;10.00;8.87;;;2.30;99.90;;;3.45;100.00;97964.66;5240698;28;20674;-64
2023/03/15 06:38:14;;;;;;;13.47;9.37;;;2.30;99.90;;;3.60;100.00;97961.78;5233638;28;20222;-64
2023/03/15 06:40:47;;;;;;;11.63;8.60;;;2.40;99.90;;;3.89;100.00;97967.53;5241122;28;20221;-65
2023/03/15 06:43:20;;;;;;;8.83;7.70;;;2.70;99.90;;;4.23;100.00;97976.31;5238231;28;20571;-64
2023/03/15 06:45:54;;;;;;;9.00;7.17;;;2.90;99.90;;;4.67;100.00;97976.56;5240503;28;20681;-64
2023/03/15 06:48:28;;;;;;;10.03;7.40;;;3.20;99.90;;;5.04;99.52;97979.53;5230655;28;20246;-65
2023/03/15 06:51:04;;;;;;;12.40;8.60;;;3.40;99.90;;;5.34;97.45;97981.94;5236080;28;20580;-64
2023/03/15 06:53:37;;;;;;;9.63;8.30;;;3.60;99.90;;;5.32;93.45;97983.50;5236423;28;20313;-64
2023/03/15 06:56:11;;;;;;;10.30;8.40;;;3.70;99.90;;;5.89;93.90;97985.34;5254501;28;20841;-65
2023/03/15 06:58:44;;;;;;;8.53;6.73;;;3.90;99.90;;;6.15;85.98;97995.00;5226751;28;20208;-64
2023/03/15 07:01:17;;;;;;;8.80;6.73;;;4.10;99.90;;;6.35;85.69;97988.00;5246375;28;20236;-63
2023/03/15 07:03:50;;;;;;;9.30;6.20;;;4.20;99.90;;;6.67;83.89;97986.22;5229692;28;20217;-64
2023/03/15 07:06:26;;;;;;;7.57;5.10;;;4.40;99.90;;;6.74;82.63;97985.91;5230829;28;20203;-64
2023/03/15 07:08:59;;;;;;;6.93;5.00;;;4.70;99.90;;;6.71;80.83;97985.69;5233036;28;20566;-65
2023/03/15 07:11:33;;;;;;;7.63;5.07;;;4.80;99.90;;;6.71;81.41;97989.88;5228822;28;20665;-64
2023/03/15 07:14:06;;;;;;;7.50;5.40;;;4.90;99.90;;;6.68;79.87;97995.59;5225019;28;20217;-64
2023/03/15 07:16:39;;;;;;;7.80;5.83;;;5.00;99.90;;;6.51;82.33;97996.00;5223169;28;20757;-64
2023/03/15 07:19:12;;;;;;;7.37;5.70;;;5.10;99.90;;;6.63;82.16;97996.91;5239526;28;20200;-63
2023/03/15 07:21:46;;;;;;;6.23;5.43;;;5.20;99.90;;;6.67;82.73;97991.31;5234189;28;20223;-64
2023/03/15 07:24:19;;;;;;;5.80;5.30;;;5.30;99.90;;;6.65;79.40;97997.03;5228167;28;20223;-64
2023/03/15 07:26:55;;;;;;;9.57;4.70;;;5.30;99.90;;;6.70;79.95;97994.06;5241214;28;20296;-62
2023/03/15 07:29:28;;;;;;;6.97;5.13;;;5.40;99.90;;;6.70;79.70;97999.16;5230610;28;20228;-62
2023/03/15 07:32:01;;;;;;;5.33;4.83;;;5.50;99.90;;;6.97;77.57;98004.47;5237175;28;20609;-61
2023/03/15 07:34:34;;;;;;;5.20;4.70;;;5.70;99.90;;;6.96;76.60;97996.00;5250359;28;20289;-63
2023/03/15 07:37:09;;;;;;;6.00;5.00;;;5.90;99.90;;;6.85;78.14;97995.97;5243966;28;20556;-62
2023/03/15 07:39:43;;;;;;;5.80;5.00;;;5.90;99.90;;;6.88;76.43;98006.34;5230851;28;20200;-62
2023/03/15 07:42:16;;;;;;;6.63;4.40;;;5.90;99.90;;;6.93;76.52;98000.84;5248295;28;20204;-62
2023/03/15 07:44:49;;;;;;;7.63;5.40;;;6.00;99.90;;;6.95;75.14;98000.94;5229269;28;20236;-64
2023/03/15 07:47:22;;;;;;;9.50;4.67;;;5.80;99.90;;;7.00;77.59;98009.78;5232026;28;20288;-64
2023/03/15 07:49:55;;;;;;;8.47;5.00;;;5.90;99.90;;;6.95;76.26;98000.94;5223120;28;20211;-64
2023/03/15 07:52:30;;;;;;;7.90;4.50;;;5.80;99.90;;;6.96;77.43;98012.91;5231694;28;20668;-63
2023/03/15 07:55:07;;;;;;;7.00;4.17;;;6.00;99.90;;;7.12;75.75;98008.13;5236132;28;20660;-63
2023/03/15 07:57:40;;;;;;;6.03;4.27;;;6.10;99.90;;;7.12;75.94;98012.34;5228513;28;20299;-63
2023/03/15 08:00:14;;;;;;;5.77;5.10;;;6.10;99.90;;;7.17;75.20;98016.97;5245641;28;20220;-62
2023/03/15 08:02:48;;;;;;;6.67;4.40;;;6.20;99.90;;;7.40;74.81;98005.94;5240495;28;20204;-63
2023/03/15 08:05:21;;;;;;;7.93;4.77;;;6.40;99.90;;;7.43;74.47;98023.06;5235625;28;20243;-63
2023/03/15 08:07:56;;;;;;;5.77;4.30;;;6.40;99.90;;;7.46;73.12;98018.19;5232265;28;20283;-63
2023/03/15 08:10:29;;;;;;;6.37;4.60;;;6.40;99.90;;;7.73;74.63;98014.19;5228056;28;20200;-63
2023/03/15 08:13:02;;;;;;;7.17;4.60;;;6.60;99.90;;;7.74;70.12;98013.41;5228160;28;20224;-63
2023/03/15 08:15:35;;;;;;;5.77;4.20;;;6.80;99.90;;;7.75;72.42;98016.84;5232172;28;20197;-61
2023/03/15 08:18:08;;;;;;;5.70;4.03;;;6.70;99.90;;;7.94;69.91;98021.56;5232808;28;20572;-63
2023/03/15 08:20:41;;;;;;;6.67;4.33;;;6.90;99.90;;;7.71;69.59;98007.22;5247441;28;20229;-64
2023/03/15 08:23:16;;;;;;;7.53;4.30;;;6.80;99.90;;;7.81;71.24;98014.72;5235664;28;20722;-63
2023/03/15 08:25:49;;;;;;;5.10;4.27;;;6.80;99.90;;;7.91;71.40;98022.22;5237737;28;20196;-64
2023/03/15 08:28:23;;;;;;;6.63;4.60;;;6.90;99.90;;;8.21;68.67;98014.94;5238035;28;20205;-60
2023/03/15 08:30:56;;;;;;;6.20;4.27;;;7.20;99.90;;;8.28;67.85;98017.13;5234097;28;20208;-62
2023/03/15 08:33:29;;;;;;;6.20;4.20;;;7.40;99.90;;;8.33;66.07;98018.34;5228489;28;20225;-63
2023/03/15 08:36:02;;;;;;;7.07;4.20;;;7.50;99.90;;;8.41;65.91;98012.09;5230994;28;20238;-63
2023/03/15 08:38:37;;;;;;;6.47;4.17;;;7.40;99.90;;;8.43;65.80;98013.09;5236337;28;20201;-63
2023/03/15 08:41:10;;;;;;;4.87;4.07;;;7.40;99.90;;;8.49;66.28;98016.06;5234145;28;20718;-63
2023/03/15 08:43:43;;;;;;;6.70;4.37;;;7.60;99.90;;;8.60;65.08;98028.66;5234172;28;22806;-62
2023/03/15 08:46:16;;;;;;;5.33;3.80;;;7.70;99.90;;;8.57;61.87;98014.91;5227671;28;20201;-63
2023/03/15 08:48:49;;;;;;;5.93;3.63;;;7.70;99.90;;;8.59;62.38;98020.13;5232165;28;20207;-62
2023/03/15 08:51:24;;;;;;;4.73;3.50;;;7.80;99.90;;;8.59;63.79;98025.22;5234260;28;20661;-63
2023/03/15 08:53:58;;;;;;;4.17;3.73;;;7.80;99.90;;;8.69;60.13;98025.03;5233461;28;20217;-63
2023/03/15 08:56:32;;;;;;;6.67;3.53;;;7.90;99.90;;;8.60;60.81;98028.66;5231947;28;20215;-64
2023/03/15 08:59:05;;;;;;;4.80;3.37;;;7.90;99.90;;;8.79;60.52;98024.00;5225274;28;20240;-63
2023/03/15 09:01:39;;;;;;;5.40;3.10;;;8.00;99.90;;;8.67;59.59;98023.16;5244749;28;20224;-64
2023/03/15 09:04:12;;;;;;;6.40;3.40;;;7.80;99.90;;;8.70;59.26;98019.19;5255305;28;20597;-64
2023/03/15 09:06:45;;;;;;;5.80;3.23;;;7.90;99.90;;;8.65;58.53;98020.53;5227659;28;20255;-64
2023/03/15 09:09:20;;;;;;;6.33;3.57;;;7.80;99.90;;;8.74;60.34;98033.00;5233407;28;20288;-63
2023/03/15 09:11:54;;;;;;;4.83;3.67;;;7.90;99.90;;;8.70;57.84;98038.66;5224938;28;20215;-63
2023/03/15 09:14:27;;;;;;;3.53;3.00;;;7.90;99.90;;;8.66;56.76;98031.59;5233376;28;20224;-63
2023/03/15 09:17:00;;;;;;;6.17;3.33;;;8.00;99.90;;;8.75;58.92;98033.09;5232687;28;20201;-64
2023/03/15 09:19:33;;;;;;;5.50;3.00;;;8.10;99.90;;;8.79;56.10;98039.28;5229840;28;20208;-61
2023/03/15 09:22:07;;;;;;;5.47;3.40;;;8.10;99.90;;;8.75;56.86;98037.31;5256166;28;20220;-61
2023/03/15 09:24:56;;;;;;;4.07;3.07;;;8.10;99.90;;;8.83;57.68;98033.59;5228131;28;20224;-63
2023/03/15 09:27:30;;;;;;;4.73;3.60;;;8.20;99.90;;;8.98;55.49;98047.34;5236179;28;20206;-64
2023/03/15 09:30:05;;;;;;;4.97;3.37;;;8.40;99.90;;;9.06;55.13;98044.44;5246391;28;20865;-62
2023/03/15 09:32:38;;;;;;;5.17;3.17;;;8.50;99.40;;;9.08;55.82;98042.88;5234072;28;20229;-63
2023/03/15 09:35:16;;;;;;;4.47;3.07;;;8.50;99.70;;;9.17;54.72;98038.38;5224729;28;20201;-63
2023/03/15 09:37:50;;;;;;;4.13;3.07;;;8.60;98.90;;;9.02;51.78;98049.34;5244242;28;20740;-63
2023/03/15 09:40:29;;;;;;;4.47;2.80;;;8.40;96.80;;;8.92;53.62;98056.28;5243537;28;20203;-62
2023/03/15 09:43:15;;;;;;;4.47;2.70;;;8.10;97.70;;;8.92;52.91;98043.53;5231257;28;20703;-63
2023/03/15 09:46:03;;;;;;;5.30;2.97;;;8.20;97.90;;;9.24;53.71;98035.44;5225711;28;20668;-63
2023/03/15 09:48:42;;;;;;;4.97;3.00;;;8.50;98.50;;;9.22;54.58;98037.91;5241953;28;20209;-64
2023/03/15 09:51:29;;;;;;;5.70;2.80;;;8.70;98.30;;;9.43;51.70;98043.50;5232442;28;20563;-63
2023/03/15 09:54:05;;;;;;;4.20;2.63;;;8.70;96.70;;;9.58;50.09;98037.59;5232645;28;20312;-64
2023/03/15 09:56:44;;;;;;;3.77;2.50;;;8.80;96.00;;;9.65;51.48;98035.56;5242432;28;20204;-63
2023/03/15 09:59:21;;;;;;;4.23;2.83;;;8.90;96.60;;;9.44;50.81;98035.06;5234911;28;20326;-64
2023/03/15 10:01:56;;;;;;;4.23;3.30;;;8.60;95.80;;;9.32;50.30;98030.84;5238089;28;20222;-63
2023/03/15 10:04:36;;;;;;;5.87;2.73;;;8.60;95.80;;;9.29;51.42;98034.06;5237123;28;20682;-64
2023/03/15 10:07:15;;;;;;;4.90;3.07;;;8.60;96.20;;;9.47;52.83;98040.38;5256858;28;20197;-63
2023/03/15 10:09:48;;;;;;;3.17;2.73;;;8.80;97.10;;;9.51;49.98;98040.56;5246199;28;20212;-63
2023/03/15 10:12:29;;;;;;;5.20;3.03;;;9.00;95.00;;;9.56;49.91;98041.75;5231190;28;20233;-63
2023/03/15 10:15:35;;;;;;;3.97;2.70;;;9.00;95.30;;;9.55;51.02;98039.97;5224405;28;20197;-63
2023/03/15 10:18:26;;;;;;;4.43;3.00;;;9.00;95.60;;;9.67;50.46;98033.06;5234150;28;20203;-63
2023/03/15 10:21:09;;;;;;;3.17;2.93;;;9.10;96.00;;;9.81;52.56;98032.28;5228305;28;20200;-63
2023/03/15 10:23:49;;;;;;;3.40;3.10;;;9.30;96.70;;;9.80;49.29;98034.75;5234755;28;20676;-63
2023/03/15 10:26:28;;;;;;;3.20;2.60;;;9.20;94.50;;;9.88;51.47;98034.44;5231166;28;20203;-64
2023/03/15 10:29:09;;;;;;;2.97;2.70;;;9.10;96.10;;;9.86;50.08;98041.09;5232451;28;20201;-64
2023/03/15 10:31:46;;;;;;;7.00;2.53;;;9.00;95.50;;;9.75;50.15;98036.13;5247408;28;20551;-63
2023/03/15 10:34:20;;;;;;;3.60;2.60;;;8.90;95.20;;;9.58;50.47;98043.59;5235051;28;20664;-63
2023/03/15 10:36:54;;;;;;;5.37;2.83;;;8.60;95.50;;;9.52;49.63;98043.19;5226364;28;20196;-62
2023/03/15 10:39:27;;;;;;;4.43;2.63;;;8.50;94.60;;;9.44;50.80;98042.72;5231875;28;20677;-62
2023/03/15 10:42:00;;;;;;;2.70;2.30;;;8.50;95.80;;;9.55;51.26;98038.28;5227841;28;20303;-63
2023/03/15 10:44:37;;;;;;;3.03;2.73;;;8.40;96.00;;;9.46;49.99;98038.59;5227880;28;20454;-64
2023/03/15 10:47:16;;;;;;;4.07;2.67;;;8.50;95.30;;;9.41;48.27;98034.88;5238805;28;20208;-63
2023/03/15 10:49:59;;;;;;;3.00;2.37;;;8.30;94.40;;;9.25;47.58;98042.31;5238880;28;20188;-63
2023/03/15 10:52:36;;;;;;;2.87;2.40;;;8.20;94.40;;;9.18;49.15;98040.13;5238265;28;20505;-63
2023/03/15 10:55:15;;;;;;;4.83;2.47;;;8.20;94.60;;;9.08;49.90;98042.88;5228808;28;20207;-64
2023/03/15 10:57:54;;;;;;;3.47;2.67;;;8.10;95.40;;;9.08;50.02;98042.88;5225853;28;20272;-61